• Join FlightAware (Why Join?)
  • Login
  • US Flag GB Flag 
11:30 EST


 

Airport Tracker/Info


-or-


 

Live Flight TrackerFlight Track Log ✈ AFL150 ✈ 10-Oct-2013 ✈ UUEE / SVO - MUHA / HAV

Flight Track Log - Related Links

Times and Time Zones

All times are in EDT time to prevent confusion due to time zone crossing. See the AFL150 flight status page for this flight to view local times or setup timezone preferences in your user account.

Time Position Orientation Groundspeed Altitude Reporting Facility
EDT Latitude Longitude Course Direction KTS MPH feet Rate Location/Type
06:20 55.9660 37.3780 254° West 176 203 1,100  Level FlightAware
06:20 55.9630 37.3570 256° West 173 199 1,800 2,400 Climbing FlightAware
06:20 55.9590 37.3290 256° West 178 205 2,500 1,320 Climbing FlightAware
06:21 55.9530 37.2910 254° West 204 235 2,800 780 Climbing FlightAware
06:21 55.9480 37.2560 256° West 226 260 3,100 1,020 Climbing FlightAware
06:22 55.9430 37.2190 256° West 247 284 3,500 1,440 Climbing FlightAware
06:22 55.9430 37.2070 270° West 251 289 3,700 3,000 Climbing FlightAware
06:22 55.9480 37.1570 280° West 245 282 5,000 3,060 Climbing FlightAware
06:22 55.9530 37.1170 283° West 242 278 6,000 2,400 Climbing FlightAware
06:23 55.9570 37.0880 284° West 255 293 6,400 2,040 Climbing FlightAware
06:23 55.9610 37.0460 280° West 259 298 7,200 2,400 Climbing FlightAware
06:23 55.9650 37.0030 279° West 263 303 8,000 2,220 Climbing FlightAware
06:24 55.9680 36.9720 280° West 268 308 8,500 2,220 Climbing FlightAware
06:24 55.9720 36.9270 279° West 270 311 9,300 2,400 Climbing FlightAware
06:24 55.9790 36.8500 279° West 277 319 10,700 1,800 Climbing FlightAware
06:25 55.9790 36.7300 270° West 307 353 11,900 1,620 Climbing FlightAware
06:26 55.9720 36.6380 262° West 321 369 13,000 1,920 Climbing FlightAware
06:26 55.9660 36.5460 263° West 330 380 14,200 1,920 Climbing FlightAware
06:27 55.9590 36.4490 263° West 341 392 15,300 1,800 Climbing FlightAware
06:28 55.9510 36.3500 262° West 352 405 16,300 1,800 Climbing FlightAware
06:28 55.9440 36.2480 263° West 361 415 17,400 1,800 Climbing FlightAware
06:29 55.9360 36.1440 262° West 369 425 18,500 1,800 Climbing FlightAware
06:29 55.9280 36.0400 262° West 375 432 19,500 1,680 Climbing FlightAware
06:30 55.9200 35.9300 263° West 380 437 20,500 1,800 Climbing FlightAware
06:31 55.9110 35.8240 261° West 383 441 21,600 1,800 Climbing FlightAware
06:31 55.9030 35.7130 263° West 385 443 22,600 1,680 Climbing FlightAware
06:32 55.8940 35.6020 262° West 386 444 23,600 1,560 Climbing FlightAware
06:32 55.8850 35.4940 262° West 389 448 24,500 1,500 Climbing FlightAware
06:33 55.8760 35.3790 262° West 391 450 25,400 1,260 Climbing FlightAware
06:33 55.8670 35.2710 262° West 397 457 26,000 1,080 Climbing FlightAware
06:34 55.8580 35.1550 262° West 402 463 26,700 1,200 Climbing FlightAware
06:35 55.8480 35.0390 261° West 407 468 27,400 1,080 Climbing FlightAware
06:35 55.8390 34.9210 262° West 412 474 28,000 480 Climbing FlightAware
06:36 55.8340 34.8030 266° West 433 498 28,000 360 Level FlightAware
06:37 55.8380 34.6380 273° West 446 513 28,500 840 Climbing FlightAware
06:37 55.8450 34.5490 278° West 451 519 29,000 1,080 Climbing FlightAware
06:38 55.8640 34.4240 285° West 453 521 29,600 1,080 Climbing FlightAware
06:38 55.8830 34.2950 285° West 451 519 30,300 1,200 Climbing FlightAware
06:39 55.9010 34.1720 285° West 449 517 31,000 1,080 Climbing FlightAware
06:39 55.9190 34.0480 285° West 448 516 31,600 1,020 Climbing FlightAware
06:40 55.9360 33.9230 284° West 447 514 32,200 1,260 Climbing FlightAware
06:40 55.9540 33.7970 284° West 440 506 33,100 1,440 Climbing FlightAware
06:41 55.9710 33.6760 284° West 431 496 33,900 1,260 Climbing FlightAware
06:42 55.9870 33.5600 284° West 424 488 34,600 1,080 Climbing FlightAware
06:42 56.0040 33.4380 284° West 421 484 35,200 840 Climbing FlightAware
06:43 56.0200 33.3210 284° West 419 482 35,600 660 Climbing FlightAware
06:43 56.0360 33.2070 284° West 418 481 36,000 300 Climbing FlightAware
06:44 56.0520 33.0860 283° West 423 487 36,000  Level FlightAware
06:45 56.0680 32.9660 283° West 427 491 36,000  Level FlightAware
06:45 56.0850 32.8450 284° West 427 491 36,000  Level FlightAware
06:46 56.1000 32.7250 283° West 425 489 36,000  Level FlightAware
06:46 56.1160 32.6070 284° West 425 489 36,000  Level FlightAware
06:47 56.1310 32.4870 283° West 424 488 36,000  Level FlightAware
06:47 56.1470 32.3660 283° West 426 490 36,000  Level FlightAware
06:48 56.1620 32.2470 283° West 430 495 36,000  Level FlightAware
06:49 56.1850 32.1270 289° West 437 503 36,000  Level FlightAware
06:49 56.2160 32.0130 296° West 445 512 36,000  Level FlightAware
06:50 56.2550 31.9030 303° West 452 520 36,000  Level FlightAware
06:50 56.2970 31.7930 305° West 452 520 36,000  Level FlightAware
06:51 56.3360 31.6860 303° West 452 520 36,000  Level FlightAware
06:52 56.3830 31.5530 303° West 454 522 36,000  Level FlightAware
06:52 56.4180 31.4560 303° West 454 522 36,000  Level FlightAware
06:53 56.4540 31.3560 303° West 454 522 36,000  Level FlightAware
06:53 56.4890 31.2580 303° West 454 522 36,000  Level FlightAware
06:54 56.5220 31.1660 303° West 454 522 36,000  Level FlightAware
06:55 56.5940 30.9820 305° West 464 534 36,000  Level FlightAware
06:56 56.6680 30.8270 311° West 463 533 36,000  Level FlightAware
06:56 56.7210 30.7120 310° West 460 529 36,000  Level FlightAware
06:57 56.7610 30.6010 303° West 458 527 36,000  Level FlightAware
06:57 56.8000 30.5000 305° West 459 528 36,000  Level FlightAware
06:58 56.8450 30.3800 304° West 458 527 36,000  Level FlightAware
06:59 56.8880 30.2630 304° West 457 526 36,000  Level FlightAware
06:59 56.9260 30.1580 304° West 456 525 36,000  Level FlightAware
07:00 56.9650 30.0540 305° West 457 526 36,000  Level FlightAware
07:00 57.0090 29.9320 304° West 457 526 36,000  Level FlightAware
07:01 57.0480 29.8230 303° West 457 526 36,000  Level FlightAware
07:01 57.0870 29.7150 304° West 457 526 36,000  Level FlightAware
07:02 57.1320 29.5900 304° West 457 526 36,000  Level FlightAware
07:03 57.1680 29.4880 303° West 452 520 36,000  Level FlightAware
07:03 57.2170 29.3510 303° West 455 524 36,000  Level FlightAware
07:04 57.2560 29.2390 303° West 455 524 36,000  Level FlightAware
07:04 57.2990 29.1170 303° West 456 525 36,000  Level FlightAware
07:05 57.3390 29.0050 304° West 456 525 36,000  Level FlightAware
07:06 57.3780 28.8920 303° West 454 522 36,000  Level FlightAware
07:06 57.4170 28.7800 303° West 453 521 36,000  Level FlightAware
07:07 57.4590 28.6580 303° West 454 522 36,000  Level FlightAware
07:07 57.4950 28.5520 302° West 453 521 36,000  Level FlightAware
07:08 57.5330 28.4420 303° West 453 521 36,000  Level FlightAware
07:08 57.5760 28.3160 303° West 453 521 36,000  Level FlightAware
07:09 57.6150 28.2020 303° West 454 522 36,000  Level FlightAware
07:10 57.6510 28.0930 302° West 453 521 36,000  Level FlightAware
07:10 57.6930 27.9690 302° West 454 522 36,000  Level FlightAware
07:11 57.7290 27.8630 302° West 455 524 36,000  Level FlightAware
07:11 57.7570 27.7790 302° West 454 522 36,000  Level FlightAware
07:12 57.8180 27.5950 302° West 449 517 36,000  Level FlightAware
07:13 57.8480 27.4760 295° West 442 509 36,000  Level FlightAware
07:13 57.8780 27.3240 290° West 442 509 36,000  Level FlightAware
07:14 57.9070 27.1850 291° West 440 506 36,000  Level FlightAware
07:15 57.9330 27.0540 291° West 443 510 36,000  Level FlightAware
07:15 57.9590 26.9220 290° West 446 513 36,000  Level FlightAware
07:16 57.9840 26.7970 291° West 447 514 36,000  Level FlightAware
07:16 58.0090 26.6690 290° West 446 513 36,000  Level FlightAware
07:17 58.0370 26.5260 290° West 448 516 36,000  Level FlightAware
07:18 58.0610 26.4030 290° West 448 516 36,000  Level FlightAware
07:18 58.0840 26.2850 290° West 448 516 36,000  Level FlightAware
07:19 58.1110 26.1460 290° West 448 516 36,000  Level FlightAware
07:19 58.1350 26.0190 290° West 448 516 36,000  Level FlightAware
07:20 58.1610 25.8830 290° West 448 516 36,000  Level FlightAware
07:21 58.1840 25.7630 290° West 448 516 36,000  Level FlightAware
07:21 58.2080 25.6330 289° West 450 518 36,000  Level FlightAware
07:22 58.2330 25.4980 289° West 450 518 36,000  Level FlightAware
07:22 58.2550 25.3780 289° West 450 518 36,000  Level FlightAware
07:23 58.2780 25.2510 289° West 450 518 36,000  Level FlightAware
07:23 58.3040 25.1120 290° West 448 516 36,000  Level FlightAware
07:24 58.3290 24.9740 289° West 446 513 36,000  Level FlightAware
07:25 58.3490 24.8610 289° West 446 513 36,000  Level FlightAware
07:25 58.3730 24.7260 289° West 446 513 36,000  Level FlightAware
07:26 58.3960 24.5940 288° West 446 513 36,000  Level FlightAware
07:26 58.4150 24.4860 289° West 447 514 36,000  Level FlightAware
07:27 58.4370 24.3530 288° West 446 513 36,000  Level FlightAware
07:27 58.4570 24.2170 286° West 446 513 36,000  Level FlightAware
07:28 58.4760 24.0920 286° West 447 514 36,000  Level FlightAware
07:29 58.4950 23.9620 286° West 446 513 36,000  Level FlightAware
07:29 58.5160 23.8200 286° West 446 513 36,000  Level FlightAware
07:30 58.5330 23.7020 285° West 444 511 36,000  Level FlightAware
07:30 58.5550 23.5570 286° West 445 512 36,000  Level FlightAware
07:31 58.5740 23.4220 285° West 446 513 36,000  Level FlightAware
07:31 58.5900 23.3090 285° West 447 514 36,000  Level FlightAware
07:32 58.6110 23.1630 285° West 446 513 36,000  Level FlightAware
07:33 58.6300 23.0280 285° West 445 512 36,000  Level FlightAware
07:33 58.6500 22.8880 285° West 444 511 36,000  Level FlightAware
07:34 58.6690 22.7550 285° West 444 511 36,000  Level FlightAware
07:34 58.6860 22.6320 285° West 444 511 36,000  Level FlightAware
07:35 58.7050 22.4860 284° West 442 509 36,000  Level FlightAware
07:36 58.7220 22.3660 285° West 441 507 36,000  Level FlightAware
07:36 58.7400 22.2320 285° West 440 506 36,000  Level FlightAware
07:37 58.7580 22.0920 284° West 441 507 36,000  Level FlightAware
07:37 58.7750 21.9680 285° West 440 506 36,000  Level FlightAware
07:38 58.7920 21.8320 284° West 439 505 36,000  Level FlightAware
07:39 58.8110 21.6870 284° West 437 503 36,000  Level FlightAware
07:39 58.8260 21.5720 284° West 436 502 36,000  Level FlightAware
07:40 58.8440 21.4350 284° West 436 502 36,000  Level FlightAware
07:40 58.8670 21.2960 288° West 440 506 36,000  Level FlightAware
07:41 58.8890 21.1730 289° West 439 505 36,000  Level FlightAware
07:41 58.9100 21.0470 288° West 439 505 36,000  Level FlightAware
07:42 58.9185 20.9958 288° West 439 505 36,000  Level FlightAware ADS-B (YKMB / KRB)
07:42 58.9434 20.8448 288° West 439 505 36,000  Level FlightAware ADS-B (YKMB / KRB)
07:43 58.9760 20.6430 287° West 440 506 36,000  Level FlightAware
07:44 58.9960 20.5240 288° West 439 505 36,000  Level FlightAware
07:44 59.0160 20.3950 287° West 440 506 36,000  Level FlightAware
07:45 59.0250 20.3401 288° West 441 507 36,000  Level FlightAware ADS-B (YKMB / KRB)
07:45 59.0434 20.2244 287° West 441 507 36,000  Level FlightAware ADS-B (YKMB / KRB)
07:46 59.0800 19.9930 287° West 439 505 36,000  Level FlightAware
07:47 59.1010 19.8540 286° West 437 503 36,000  Level FlightAware
07:47 59.1220 19.7230 287° West 437 503 36,000  Level FlightAware
07:48 59.1379 19.6169 286° West 436 502 36,000  Level FlightAware ADS-B (YKMB / KRB)
07:48 59.1614 19.4620 287° West 435 501 36,000  Level FlightAware ADS-B (YKMB / KRB)
07:49 59.1839 19.3130 286° West 435 501 36,000  Level FlightAware ADS-B (YKMB / KRB)
07:50 59.2066 19.1611 286° West 440 506 36,000  Level FlightAware ADS-B (YKMB / KRB)
07:50 59.2291 19.0092 286° West 444 511 36,000  Level FlightAware ADS-B (YKMB / KRB)
07:51 59.2427 18.9168 286° West 443 510 36,000  Level FlightAware ADS-B (YKMB / KRB)
07:51 59.2641 18.7699 286° West 441 507 36,000  Level FlightAware ADS-B (YKMB / KRB)
07:52 59.2832 18.6385 286° West 441 507 36,000  Level FlightAware ADS-B (YKMB / KRB)
07:53 59.2991 18.5275 286° West 441 507 36,000  Level FlightAware ADS-B (YKMB / KRB)
07:53 59.3183 18.3924 286° West 442 509 36,000  Level FlightAware ADS-B (YKMB / KRB)
07:54 59.3370 18.2570 285° West 442 509 36,000  Level FlightAware
07:54 59.3457 18.1980 286° West 444 511 36,000  Level FlightAware ADS-B (YKMB / KRB)
07:55 59.3675 18.0407 285° West 443 510 36,000  Level FlightAware ADS-B (YKMB / KRB)
07:55 59.3872 17.8991 285° West 443 510 36,000  Level FlightAware ADS-B (YKMB / KRB)
07:56 59.4062 17.7603 285° West 441 507 36,000  Level FlightAware ADS-B (YKMB / KRB)
07:56 59.4221 17.6435 285° West 441 507 36,000  Level FlightAware ADS-B (YKMB / KRB)
07:57 59.4416 17.4981 285° West 441 507 36,000  Level FlightAware ADS-B (YKMB / KRB)
07:58 59.4582 17.3735 285° West 441 507 36,000  Level FlightAware ADS-B (YKMB / KRB)
07:58 59.4788 17.2180 285° West 443 510 36,000  Level FlightAware ADS-B (YKMB / KRB)
07:59 59.4931 17.1092 285° West 444 511 36,000  Level FlightAware ADS-B (YKMB / KRB)
07:59 59.5135 16.9515 284° West 446 513 36,000  Level FlightAware ADS-B (YKMB / KRB)
08:00 59.5288 16.8323 284° West 448 516 36,000  Level FlightAware ADS-B (YKMB / KRB)
08:01 59.5497 16.6701 284° West 448 516 36,000  Level FlightAware ADS-B (YKMB / KRB)
08:01 59.5650 16.5495 284° West 449 517 36,000  Level FlightAware ADS-B (YKMB / KRB)
08:02 59.5842 16.3953 284° West 448 516 36,000  Level FlightAware ADS-B (YKMB / KRB)
08:02 59.5993 16.2726 284° West 449 517 36,000  Level FlightAware ADS-B (YKMB / KRB)
08:03 59.6181 16.1186 284° West 449 517 36,000  Level FlightAware ADS-B (YKMB / KRB)
08:03 59.6324 16.0017 284° West 449 517 36,000  Level FlightAware ADS-B (YKMB / KRB)
08:04 59.6513 15.8450 284° West 448 516 36,000  Level FlightAware ADS-B (YKMB / KRB)
08:05 59.6720 15.6710 283° West 446 513 36,000  Level FlightAware
08:05 59.6890 15.5240 283° West 446 513 36,000  Level FlightAware
08:06 59.7050 15.3860 283° West 446 513 36,000  Level FlightAware
08:07 59.7230 15.2400 284° West 448 516 36,000  Level FlightAware
08:07 59.7450 15.1010 287° West 450 518 36,000  Level FlightAware
08:08 59.7650 14.9780 288° West 452 520 36,000  Level FlightAware
08:08 59.7890 14.8310 288° West 454 522 36,000  Level FlightAware
08:09 59.8110 14.6860 287° West 455 524 36,000  Level FlightAware
08:09 59.8330 14.5470 288° West 456 525 36,000  Level FlightAware
08:10 59.8530 14.4190 287° West 456 525 36,000  Level FlightAware
08:11 59.8870 14.1960 287° West 455 524 36,000  Level FlightAware
08:12 59.9110 14.0380 287° West 454 522 36,000  Level FlightAware
08:12 59.9330 13.8870 286° West 454 522 36,000  Level FlightAware
08:13 59.9540 13.7490 287° West 454 522 36,000  Level FlightAware
08:13 59.9760 13.6030 287° West 455 524 36,000  Level FlightAware
08:14 59.9950 13.4710 286° West 457 526 36,000  Level FlightAware
08:15 60.0160 13.3260 286° West 457 526 36,000  Level FlightAware
08:15 60.0360 13.1880 286° West 459 528 36,000  Level FlightAware
08:16 60.0560 13.0500 286° West 460 529 36,000  Level FlightAware
08:16 60.0780 12.8960 286° West 462 532 36,000  Level FlightAware
08:17 60.1000 12.7390 286° West 464 534 36,000  Level FlightAware
08:17 60.1180 12.6050 285° West 464 534 36,000  Level FlightAware
08:18 60.1380 12.4630 286° West 463 533 36,000  Level FlightAware
08:19 60.1550 12.3370 285° West 462 532 36,000  Level FlightAware
08:19 60.1780 12.1700 286° West 461 531 36,000  Level FlightAware
08:20 60.1960 12.0320 285° West 461 531 36,000  Level FlightAware
08:20 60.2140 11.9000 285° West 461 531 36,000  Level FlightAware
08:21 60.2320 11.7590 284° West 461 531 36,000  Level FlightAware
08:22 60.2520 11.6070 285° West 462 532 36,000  Level FlightAware
08:22 60.2730 11.4490 285° West 463 533 36,000  Level FlightAware
08:23 60.2900 11.3140 284° West 463 533 36,000  Level FlightAware
08:23 60.3100 11.1580 285° West 464 534 36,000  Level FlightAware
08:24 60.3250 11.0340 284° West 464 534 36,000  Level FlightAware
08:24 60.3460 10.8630 284° West 466 536 36,000  Level FlightAware
08:25 60.3650 10.7120 284° West 467 537 36,000  Level FlightAware
08:26 60.3820 10.5710 284° West 469 540 36,000  Level FlightAware
08:26 60.4000 10.4250 284° West 467 537 36,000  Level FlightAware
08:27 60.4190 10.2600 283° West 463 533 36,000  Level FlightAware
08:27 60.4350 10.1310 284° West 463 533 36,000  Level FlightAware
08:28 60.4520 9.9830 283° West 462 532 36,000  Level FlightAware
08:29 60.4700 9.8260 283° West 465 535 36,000  Level FlightAware
08:29 60.4880 9.6720 283° West 466 536 36,000  Level FlightAware
08:30 60.5030 9.5400 283° West 465 535 36,000  Level FlightAware
08:30 60.5200 9.3850 283° West 464 534 36,000  Level FlightAware
08:31 60.5370 9.2320 283° West 463 533 36,000  Level FlightAware
08:32 60.5530 9.0810 282° West 462 532 36,000  Level FlightAware
08:32 60.5680 8.9460 283° West 462 532 36,000  Level FlightAware
08:33 60.5850 8.7920 283° West 462 532 36,000  Level FlightAware
08:33 60.6000 8.6410 282° West 464 534 36,000  Level FlightAware
08:34 60.6160 8.4870 282° West 463 533 36,000  Level FlightAware
08:34 60.6310 8.3490 283° West 465 535 36,000  Level FlightAware
08:35 60.6460 8.1980 282° West 466 536 36,000  Level FlightAware
08:36 60.6620 8.0480 282° West 469 540 36,000  Level FlightAware
08:36 60.6770 7.8930 281° West 469 540 36,000  Level FlightAware
08:37 60.6920 7.7380 281° West 468 539 36,000  Level FlightAware
08:37 60.7070 7.5800 281° West 472 543 36,000  Level FlightAware
08:38 60.7210 7.4330 281° West 472 543 36,000  Level FlightAware
08:39 60.7370 7.2730 282° West 475 547 36,000  Level FlightAware
08:39 60.7500 7.1340 281° West 475 547 36,000  Level FlightAware
08:40 60.7640 6.9800 281° West 474 545 36,000  Level FlightAware
08:40 60.7790 6.8180 281° West 474 545 36,000  Level FlightAware
08:41 60.7930 6.6550 280° West 476 548 36,000  Level FlightAware
08:41 60.8050 6.5210 280° West 476 548 36,000  Level FlightAware
08:42 60.8200 6.3540 281° West 478 550 36,000  Level FlightAware
08:43 60.8340 6.1910 280° West 481 554 36,000  Level FlightAware
08:43 60.8460 6.0440 280° West 483 556 36,000  Level FlightAware
08:44 60.8590 5.8870 280° West 482 555 36,000  Level FlightAware
08:44 60.8720 5.7360 280° West 481 554 36,000  Level FlightAware
08:45 60.8850 5.5690 279° West 482 555 36,000  Level FlightAware
08:45 60.8980 5.4140 280° West 482 555 36,000  Level FlightAware
08:46 60.9090 5.2670 279° West 482 555 36,000  Level FlightAware
08:47 60.9220 5.1010 279° West 479 551 36,000  Level FlightAware
08:47 60.9340 4.9410 279° West 477 549 36,000  Level FlightAware
08:48 60.9460 4.7900 279° West 475 547 36,000  Level FlightAware
08:48 60.9580 4.6270 279° West 471 542 36,000  Level FlightAware
08:49 60.9680 4.4840 278° West 473 544 36,000  Level FlightAware
08:50 60.9800 4.3200 279° West 472 543 36,000  Level FlightAware
08:50 60.9910 4.1600 278° West 471 542 36,000  Level FlightAware
08:51 61.0020 4.0060 278° West 472 543 36,000  Level FlightAware
08:51 61.0110 3.8700 278° West 472 543 36,000  Level FlightAware
08:52 61.0220 3.7010 278° West 470 541 36,000  Level FlightAware
08:52 61.0320 3.5540 278° West 467 537 36,000  Level FlightAware
08:53 61.0420 3.3940 277° West 461 531 36,000  Level FlightAware
08:54 61.0520 3.2450 278° West 459 528 36,000  Level FlightAware
08:54 61.0600 3.1020 277° West 457 526 36,000  Level FlightAware
08:55 61.0700 2.9460 278° West 453 521 36,000  Level FlightAware
08:55 61.0790 2.7970 277° West 452 520 36,000  Level FlightAware
08:56 61.0870 2.6480 276° West 451 519 36,000  Level FlightAware
08:57 61.0970 2.4920 278° West 450 518 36,000  Level FlightAware
08:57 61.1050 2.3430 276° West 447 514 36,000  Level FlightAware
08:58 61.1120 2.2100 276° West 446 513 36,000  Level FlightAware
08:58 61.1210 2.0460 277° West 446 513 36,000  Level FlightAware
08:59 61.1290 1.8970 276° West 446 513 36,000  Level FlightAware
08:59 61.1370 1.7500 276° West 445 512 36,000  Level FlightAware
09:00 61.1430 1.6130 275° West 445 512 36,000  Level FlightAware
09:01 61.1510 1.4610 276° West 445 512 36,000  Level FlightAware
09:01 61.1590 1.3060 276° West 445 512 36,000  Level FlightAware
09:02 61.1650 1.1680 275° West 445 512 36,000  Level FlightAware
09:02 61.1720 1.0220 276° West 444 511 36,000  Level FlightAware
09:03 61.1790 0.8600 275° West 445 512 36,000  Level FlightAware
09:04 61.1850 0.7210 275° West 446 513 36,000  Level FlightAware
09:04 61.1920 0.5710 276° West 448 516 36,000  Level FlightAware
09:05 61.1980 0.4120 275° West 449 517 36,000  Level FlightAware
09:05 61.2040 0.2730 275° West 450 518 36,000  Level FlightAware
09:06 61.2100 0.1240 275° West 449 517 36,000  Level FlightAware
09:06 61.2190 -0.0370 277° West 439 505 36,000  Level FlightAware
09:07 61.2340 -0.1680 283° West 432 497 36,000  Level FlightAware
09:08 61.2520 -0.3180 284° West 432 497 36,000  Level FlightAware
09:08 61.2670 -0.4480 284° West 432 497 36,000  Level FlightAware
09:09 61.2840 -0.5990 283° West 432 497 36,000  Level FlightAware
09:09 61.3000 -0.7420 283° West 432 497 36,000  Level FlightAware
09:10 61.3150 -0.8750 283° West 432 497 36,000  Level FlightAware
09:10 61.3280 -0.9980 282° West 431 496 36,000  Level FlightAware
09:11 61.3410 -1.1140 283° West 431 496 36,000  Level FlightAware
09:12 61.3610 -1.2960 283° West 432 497 36,000  Level FlightAware
09:12 61.3770 -1.4460 283° West 433 498 36,000  Level FlightAware
09:13 61.3910 -1.5790 282° West 434 499 36,000  Level FlightAware
09:13 61.4060 -1.7280 282° West 433 498 36,000  Level FlightAware
09:14 61.4220 -1.8810 282° West 432 497 36,000  Level FlightAware
09:15 61.4340 -1.9940 283° West 431 496 36,000  Level FlightAware
09:15 61.4490 -2.1510 281° West 431 496 36,000  Level FlightAware
09:16 61.4640 -2.3010 282° West 431 496 36,000  Level FlightAware
09:17 61.4780 -2.4500 281° West 429 494 36,000  Level FlightAware
09:17 61.4950 -2.6110 283° West 430 495 36,000  Level FlightAware
09:18 61.5080 -2.7460 281° West 430 495 36,000  Level FlightAware
09:18 61.5220 -2.8940 281° West 430 495 36,000  Level FlightAware
09:19 61.5360 -3.0400 281° West 430 495 36,000  Level FlightAware
09:19 61.5490 -3.1870 281° West 429 494 36,000  Level FlightAware
09:20 61.5610 -3.3190 281° West 430 495 36,000  Level FlightAware
09:21 61.5750 -3.4670 281° West 431 496 36,000  Level FlightAware
09:21 61.5860 -3.5960 280° West 432 497 36,000  Level FlightAware
09:22 61.6030 -3.7860 281° West 434 499 36,000  Level FlightAware
09:22 61.6160 -3.9350 280° West 436 502 36,000  Level FlightAware
09:23 61.6280 -4.0680 281° West 436 502 36,000  Level FlightAware
09:24 61.6400 -4.2200 280° West 437 503 36,000  Level FlightAware
09:24 61.6520 -4.3560 281° West 437 503 36,000  Level FlightAware
09:25 61.6650 -4.5210 279° West 437 503 36,000  Level FlightAware
09:25 61.6760 -4.6540 280° West 437 503 36,000  Level FlightAware
09:26 61.6880 -4.7940 280° West 436 502 36,000  Level FlightAware
09:27 61.7000 -4.9490 279° West 436 502 36,000  Level FlightAware
09:27 61.7120 -5.1040 279° West 436 502 36,000  Level FlightAware
09:28 61.7220 -5.2380 279° West 436 502 36,000  Level FlightAware
09:28 61.7310 -5.3590 279° West 437 503 36,000  Level FlightAware
09:29 61.7450 -5.5390 279° West 439 505 36,000  Level FlightAware
09:29 61.7550 -5.6790 279° West 440 506 36,000  Level FlightAware
09:30 61.7670 -5.8400 279° West 438 504 36,000  Level FlightAware
09:31 61.7760 -5.9780 278° West 437 503 36,000  Level FlightAware
09:31 61.7860 -6.1190 279° West 436 502 36,000  Level FlightAware
09:32 61.7970 -6.2780 278° West 436 502 36,000  Level FlightAware
09:32 61.8080 -6.4280 279° West 437 503 36,000  Level FlightAware
09:33 61.8170 -6.5610 278° West 437 503 36,000  Level FlightAware
09:34 61.8270 -6.7230 278° West 435 501 36,000  Level FlightAware
09:34 61.8370 -6.8750 278° West 432 497 36,000  Level FlightAware
09:35 61.8450 -7.0030 278° West 431 496 36,000  Level FlightAware
09:35 61.8550 -7.1580 278° West 429 494 36,000  Level FlightAware
09:36 61.8640 -7.3070 277° West 427 491 36,000  Level FlightAware
09:36 61.8720 -7.4370 277° West 428 493 36,000  Level FlightAware
09:37 61.8810 -7.5890 277° West 428 493 36,000  Level FlightAware
09:38 61.8890 -7.7380 277° West 428 493 36,000  Level FlightAware
09:38 61.8970 -7.8710 277° West 426 490 36,000  Level FlightAware
09:39 61.9050 -8.0050 277° West 425 489 36,000  Level FlightAware
09:39 61.9110 -8.1260 276° West 424 488 36,000  Level FlightAware
09:40 61.9200 -8.2860 277° West 424 488 36,000  Level FlightAware
09:40 61.9270 -8.4200 276° West 424 488 36,000  Level FlightAware
09:41 61.9350 -8.5720 276° West 424 488 36,000  Level FlightAware
09:42 61.9420 -8.7230 276° West 424 488 36,000  Level FlightAware
09:42 61.9490 -8.8660 276° West 423 487 36,000  Level FlightAware
09:43 61.9560 -9.0000 276° West 422 486 36,000  Level FlightAware
09:43 61.9630 -9.1520 276° West 421 484 36,000  Level FlightAware
09:44 61.9710 -9.3220 276° West 420 483 36,000  Level FlightAware
09:45 61.9810 -9.5440 276° West 419 482 36,000  Level FlightAware
09:46 61.9880 -9.7180 275° West 420 483 36,000  Level FlightAware
09:46 61.9940 -9.8490 276° West 420 483 36,000  Level FlightAware
09:47 62.0040 -10.0210 277° West 417 480 36,000  Level FlightAware
09:47 62.0200 -10.1460 285° West 414 476 36,000  Level FlightAware
09:48 62.0400 -10.2850 287° West 414 476 36,000  Level FlightAware
09:49 62.0600 -10.4310 286° West 414 476 36,000  Level FlightAware
09:49 62.0760 -10.5540 286° West 414 476 36,000  Level FlightAware
09:50 62.0920 -10.6750 286° West 414 476 36,000  Level FlightAware
09:51 62.1090 -10.7950 287° West 414 476 36,000  Level FlightAware
09:51 62.1240 -10.9120 285° West 414 476 36,000  Level FlightAware
09:52 62.1410 -11.0360 286° West 414 476 36,000  Level FlightAware
09:52 62.1570 -11.1570 286° West 414 476 36,000  Level FlightAware
09:53 62.1730 -11.2770 286° West 414 476 36,000  Level FlightAware
09:54 62.1900 -11.4010 286° West 414 476 36,000  Level FlightAware
09:54 62.2060 -11.5220 286° West 414 476 36,000  Level FlightAware
09:55 62.2220 -11.6460 286° West 414 476 36,000  Level FlightAware
09:55 62.2390 -11.7710 286° West 414 476 36,000  Level FlightAware
09:56 62.2550 -11.8920 286° West 414 476 36,000  Level FlightAware
09:57 62.2710 -12.0130 286° West 414 476 36,000  Level FlightAware
09:57 62.2880 -12.1370 286° West 414 476 36,000  Level FlightAware
09:58 62.3050 -12.2620 286° West 414 476 36,000  Level FlightAware
09:58 62.3520 -12.7350 282° West 417 480 36,000  Level FlightAware
09:59 62.3700 -12.8810 285° West 419 482 36,000  Level FlightAware
10:00 62.3860 -13.0200 284° West 421 484 36,000  Level FlightAware
10:00 62.4030 -13.1740 283° West 422 486 36,000  Level FlightAware
10:01 62.4170 -13.2980 284° West 422 486 36,000  Level FlightAware
10:01 62.4340 -13.4450 284° West 421 484 36,000  Level FlightAware
10:02 62.4500 -13.5920 283° West 420 483 36,000  Level FlightAware
10:02 62.4650 -13.7300 283° West 421 484 36,000  Level FlightAware
10:03 62.4810 -13.8750 283° West 422 486 36,000  Level FlightAware
10:04 62.4950 -14.0060 283° West 421 484 36,000  Level FlightAware
10:04 62.5110 -14.1580 283° West 421 484 36,000  Level FlightAware
10:05 62.5260 -14.2950 283° West 420 483 36,000  Level FlightAware
10:05 62.5420 -14.4500 283° West 422 486 36,000  Level FlightAware
10:06 62.5570 -14.5960 283° West 422 486 36,000  Level FlightAware
10:07 62.5720 -14.7360 283° West 423 487 36,000  Level FlightAware
10:07 62.5860 -14.8780 282° West 424 488 36,000  Level FlightAware
10:08 62.6010 -15.0280 282° West 425 489 36,000  Level FlightAware
10:08 62.6150 -15.1660 282° West 426 490 36,000  Level FlightAware
10:09 62.6290 -15.3190 281° West 426 490 36,000  Level FlightAware
10:09 62.6440 -15.4700 282° West 427 491 36,000  Level FlightAware
10:10 62.6580 -15.6200 282° West 426 490 36,000  Level FlightAware
10:11 62.6790 -15.8490 281° West 427 491 36,000  Level FlightAware
10:12 62.6920 -15.9830 282° West 426 490 36,000  Level FlightAware
10:12 62.7060 -16.1340 281° West 426 490 36,000  Level FlightAware
10:13 62.7190 -16.2840 281° West 425 489 36,000  Level FlightAware
10:13 62.7330 -16.4370 281° West 425 489 36,000  Level FlightAware
10:14 62.7460 -16.5830 281° West 424 488 36,000  Level FlightAware
10:14 62.7580 -16.7260 280° West 423 487 36,000  Level FlightAware
10:15 62.7710 -16.8710 281° West 422 486 36,000  Level FlightAware
10:16 62.7830 -17.0200 280° West 420 483 36,000  Level FlightAware
10:16 62.7960 -17.1700 281° West 419 482 36,000  Level FlightAware
10:17 62.8080 -17.3180 280° West 419 482 36,000  Level FlightAware
10:17 62.8190 -17.4590 280° West 420 483 36,000  Level FlightAware
10:18 62.8320 -17.6100 281° West 422 486 36,000  Level FlightAware
10:19 62.8420 -17.7460 279° West 423 487 36,000  Level FlightAware
10:19 62.8550 -17.9090 280° West 427 491 36,000  Level FlightAware
10:20 62.8640 -18.0260 280° West 427 491 36,000  Level FlightAware
10:20 62.8770 -18.2020 279° West 429 494 36,000  Level FlightAware
10:21 62.8880 -18.3400 280° West 431 496 36,000  Level FlightAware
10:22 62.9000 -18.5020 279° West 432 497 36,000  Level FlightAware
10:22 62.9100 -18.6410 279° West 431 496 36,000  Level FlightAware
10:23 62.9200 -18.7910 278° West 430 495 36,000  Level FlightAware
10:23 62.9310 -18.9510 279° West 430 495 36,000  Level FlightAware
10:24 62.9410 -19.0930 279° West 431 496 36,000  Level FlightAware
10:24 62.9520 -19.2470 279° West 433 498 36,000  Level FlightAware
10:25 62.9630 -19.4160 278° West 435 501 36,000  Level FlightAware
10:26 62.9720 -19.5500 278° West 435 501 36,000  Level FlightAware
10:26 62.9820 -19.7160 278° West 436 502 36,000  Level FlightAware
10:27 62.9920 -19.8760 278° West 436 502 36,000  Level FlightAware
10:27 63.0010 -20.0190 278° West 436 502 36,000  Level FlightAware
10:28 63.0060 -20.1790 274° West 436 502 36,000  Level FlightAware
10:29 63.0120 -20.3390 275° West 438 504 36,000  Level FlightAware
10:29 63.0160 -20.4800 274° West 440 506 36,000  Level FlightAware
10:30 63.0210 -20.6400 274° West 442 509 36,000  Level FlightAware
10:30 63.0260 -20.8020 274° West 441 507 36,000  Level FlightAware
10:31 63.0310 -20.9640 274° West 440 506 36,000  Level FlightAware
10:31 63.0350 -21.1040 274° West 438 504 36,000  Level FlightAware
10:32 63.0390 -21.2660 273° West 438 504 36,000  Level FlightAware
10:33 63.0440 -21.4250 274° West 436 502 36,000  Level FlightAware
10:33 63.0470 -21.5660 273° West 436 502 36,000  Level FlightAware
10:34 63.0510 -21.7420 273° West 436 502 36,000  Level FlightAware
10:34 63.0540 -21.8860 273° West 435 501 36,000  Level FlightAware
10:35 63.0580 -22.0440 273° West 434 499 36,000  Level FlightAware
10:36 63.0610 -22.2000 273° West 434 499 36,000  Level FlightAware
10:36 63.0640 -22.3420 273° West 434 499 36,000  Level FlightAware
10:37 63.0670 -22.5030 272° West 434 499 36,000  Level FlightAware
10:37 63.0690 -22.6460 272° West 434 499 36,000  Level FlightAware
10:38 63.0720 -22.7990 273° West 434 499 36,000  Level FlightAware
10:38 63.0740 -22.9680 272° West 433 498 36,000  Level FlightAware
10:39 63.0760 -23.1200 272° West 432 497 36,000  Level FlightAware
10:40 63.0780 -23.2710 272° West 433 498 36,000  Level FlightAware
10:40 63.0800 -23.4200 272° West 433 498 36,000  Level FlightAware
10:41 63.0820 -23.5860 272° West 432 497 36,000  Level FlightAware
10:41 63.0830 -23.7430 271° West 431 496 36,000  Level FlightAware
10:42 63.0840 -23.8920 271° West 430 495 36,000  Level FlightAware
10:42 63.0850 -24.0390 271° West 429 494 36,000  Level FlightAware
10:43 63.0860 -24.1810 271° West 429 494 36,000  Level FlightAware
10:44 63.0870 -24.3450 271° West 429 494 36,000  Level FlightAware
10:44 63.0880 -24.4840 271° West 430 495 36,000  Level FlightAware
10:45 63.0880 -24.6520 270° West 431 496 36,000  Level FlightAware
10:45 63.0880 -24.8110 270° West 431 496 36,000  Level FlightAware
10:46 63.0890 -24.9630 271° West 430 495 36,000  Level FlightAware
10:47 63.0890 -25.1730 270° West 430 495 36,000  Level FlightAware
10:47 63.0880 -25.3220 269° West 430 495 36,000  Level FlightAware
10:48 63.0880 -25.4700 270° West 430 495 36,000  Level FlightAware
10:49 63.0870 -25.6280 269° West 430 495 36,000  Level FlightAware
10:49 63.0860 -25.7860 269° West 429 494 36,000  Level FlightAware
10:50 63.0860 -25.9190 270° West 428 493 36,000  Level FlightAware
10:50 63.0850 -26.0670 269° West 428 493 36,000  Level FlightAware
10:51 63.0830 -26.2280 268° West 428 493 36,000  Level FlightAware
10:51 63.0820 -26.3710 269° West 428 493 36,000  Level FlightAware
10:52 63.0800 -26.5430 269° West 427 491 36,000  Level FlightAware
10:53 63.0790 -26.6840 269° West 426 490 36,000 60 Level FlightAware
10:53 63.0770 -26.8440 268° West 426 490 36,100 720 Climbing FlightAware
10:54 63.0740 -27.0080 268° West 420 483 36,900 720 Climbing FlightAware
10:54 63.0720 -27.1470 268° West 421 484 37,000 60 Climbing FlightAware
10:55 63.0700 -27.2920 268° West 420 483 37,000  Level FlightAware
10:56 63.0670 -27.4550 268° West 418 481 37,000  Level FlightAware
10:56 63.0650 -27.5910 268° West 417 480 37,000  Level FlightAware
10:57 63.0620 -27.7410 268° West 417 480 37,000  Level FlightAware
10:58 63.0570 -27.9730 267° West 417 480 37,000  Level FlightAware
10:58 63.0540 -28.1270 268° West 417 480 37,000  Level FlightAware
10:59 63.0510 -28.2780 268° West 417 480 37,000  Level FlightAware
10:59 63.0470 -28.4130 266° West 417 480 37,000  Level FlightAware
11:00 63.0440 -28.5510 267° West 415 478 37,000  Level FlightAware
11:01 63.0400 -28.7150 267° West 414 476 37,000  Level FlightAware
11:01 63.0360 -28.8650 267° West 413 475 37,000  Level FlightAware
11:02 63.0320 -28.9990 266° West 413 475 37,000  Level FlightAware
11:02 63.0280 -29.1430 267° West 412 474 37,000  Level FlightAware
11:03 63.0230 -29.3060 266° West 413 475 37,000  Level FlightAware
11:03 63.0190 -29.4470 266° West 415 478 37,000  Level FlightAware
11:04 63.0120 -29.6450 266° West 415 478 37,000  Level FlightAware
11:05 63.0060 -29.8400 266° West 416 479 37,000  Level FlightAware
11:06 63.0020 -29.9630 266° West 416 479 37,000  Level FlightAware
11:06 63.0040 -30.1080 272° West 424 488 37,000  Level FlightAware
11:07 63.0100 -30.2750 275° West 422 486 37,000  Level FlightAware
11:07 63.0150 -30.4380 274° West 422 486 37,000  Level FlightAware
11:08 63.0190 -30.5810 274° West 421 484 37,000  Level FlightAware
11:09 63.0240 -30.7120 275° West 422 486 37,000  Level FlightAware
11:09 63.0280 -30.8440 274° West 422 486 37,000  Level FlightAware
11:10 63.0320 -30.9750 274° West 422 486 37,000  Level FlightAware
11:10 63.0360 -31.1100 274° West 422 486 37,000  Level FlightAware
11:11 63.0420 -31.3600 273° West 422 486 37,000  Level FlightAware
11:11 63.0430 -31.4050 273° West 422 486 37,000  Level FlightAware
11:12 63.0480 -31.6190 273° West 423 487 37,000  Level FlightAware
11:13 63.0530 -31.8690 273° West 424 488 37,000  Level FlightAware
11:14 63.0580 -32.0780 273° West 425 489 37,000  Level FlightAware
11:14 63.0600 -32.2110 272° West 425 489 37,000  Level FlightAware
11:15 63.0620 -32.3440 272° West 425 489 37,000  Level FlightAware
11:16 63.0640 -32.4770 272° West 425 489 37,000  Level FlightAware
11:16 63.0660 -32.6130 272° West 425 489 37,000  Level FlightAware
11:17 63.0690 -32.7570 273° West 425 489 37,000  Level FlightAware
11:18 63.0710 -32.8900 272° West 425 489 37,000  Level FlightAware
11:18 63.0730 -33.0220 272° West 425 489 37,000  Level FlightAware
11:19 63.0750 -33.1550 272° West 425 489 37,000  Level FlightAware
11:19 63.0770 -33.2920 272° West 425 489 37,000  Level FlightAware
11:20 63.0790 -33.4240 272° West 425 489 37,000  Level FlightAware
11:21 63.0810 -33.5570 272° West 425 489 37,000  Level FlightAware
11:21 63.0830 -33.6900 272° West 425 489 37,000  Level FlightAware
11:22 63.0850 -33.8190 272° West 425 489 37,000  Level FlightAware
11:22 63.0870 -33.9520 272° West 425 489 37,000  Level FlightAware
11:23 63.0890 -34.0850 272° West 425 489 37,000  Level FlightAware
11:26 62.9426 -34.6797 242° Southwest  Level Estimated
11:27 62.8852 -34.9083 241° Southwest  Level Estimated
11:28 62.8275 -35.1360 241° Southwest  Level Estimated
11:29 62.7694 -35.3628 241° Southwest  Level Estimated
11:30 62.7109 -35.5888 241° Southwest  Level Estimated
11:31 62.6521 -35.8138 240° Southwest  Level Estimated
11:32 62.5929 -36.0379 240° Southwest  Level Estimated
11:33 62.5334 -36.2612 240° Southwest  Level Estimated
11:34 62.4735 -36.4835 240° Southwest  Level Estimated
11:35 62.4133 -36.7049 240° Southwest  Level Estimated
11:36 62.3527 -36.9255 239° Southwest  Level Estimated
11:37 62.2917 -37.1452 239° Southwest  Level Estimated
11:38 62.2305 -37.3640 239° Southwest  Level Estimated
11:39 62.1688 -37.5818 239° Southwest  Level Estimated
11:40 62.1069 -37.7989 239° Southwest  Level Estimated
11:41 62.0446 -38.0150 238° Southwest  Level Estimated
11:42 61.9819 -38.2302 238° Southwest  Level Estimated
11:43 61.9190 -38.4445 238° Southwest  Level Estimated
11:44 61.8557 -38.6580 238° Southwest  Level Estimated
11:45 61.7920 -38.8706 238° Southwest  Level Estimated
11:46 61.7281 -39.0823 238° Southwest  Level Estimated
11:47 61.6638 -39.2931 237° Southwest  Level Estimated
11:48 61.5992 -39.5030 237° Southwest  Level Estimated
11:49 61.5342 -39.7121 237° Southwest  Level Estimated
11:50 61.4690 -39.9203 237° Southwest  Level Estimated
11:51 61.4034 -40.1276 237° Southwest  Level Estimated
11:52 61.3375 -40.3340 236° Southwest  Level Estimated
11:53 61.2714 -40.5396 236° Southwest  Level Estimated
11:54 61.2048 -40.7443 236° Southwest  Level Estimated
11:55 61.1380 -40.9482 236° Southwest  Level Estimated
11:56 61.0709 -41.1512 236° Southwest  Level Estimated
11:57 61.0035 -41.3533 236° Southwest  Level Estimated
11:58 60.9358 -41.5545 235° Southwest  Level Estimated
11:59 60.8678 -41.7550 235° Southwest  Level Estimated
12:00 60.7995 -41.9545 235° Southwest  Level Estimated
12:01 60.7309 -42.1532 235° Southwest  Level Estimated
12:02 60.6619 -42.3511 235° Southwest  Level Estimated
12:03 60.5928 -42.5481 234° Southwest  Level Estimated
12:04 60.5233 -42.7442 234° Southwest  Level Estimated
12:05 60.4535 -42.9395 234° Southwest  Level Estimated
12:06 60.3835 -43.1340 234° Southwest  Level Estimated
12:07 60.3131 -43.3277 234° Southwest  Level Estimated
12:08 60.2425 -43.5205 234° Southwest  Level Estimated
12:09 60.1716 -43.7125 233° Southwest  Level Estimated
12:10 60.1005 -43.9036 233° Southwest  Level Estimated
12:11 60.0290 -44.0939 233° Southwest  Level Estimated
12:12 59.9573 -44.2834 233° Southwest  Level Estimated
12:13 59.8853 -44.4721 233° Southwest  Level Estimated
12:14 59.8131 -44.6600 233° Southwest  Level Estimated
12:15 59.7406 -44.8470 232° Southwest  Level Estimated
12:16 59.6678 -45.0333 232° Southwest  Level Estimated
12:17 59.5947 -45.2187 232° Southwest  Level Estimated
12:18 59.5214 -45.4033 232° Southwest  Level Estimated
12:19 59.4478 -45.5872 232° Southwest  Level Estimated
12:19 63.0150 -49.5780 232° Southwest 458 527 37,000  Level FlightAware
12:20 63.0100 -49.7250 266° West 458 527 37,000  Level FlightAware
12:20 63.0050 -49.8730 266° West 457 526 37,000  Level FlightAware
12:21 62.9930 -50.0250 260° West 453 521 37,000  Level FlightAware
12:21 62.9700 -50.1940 253° West 451 519 37,000  Level FlightAware
12:22 62.9460 -50.3500 251° West 451 519 37,000  Level FlightAware
12:23 62.9230 -50.4980 251° West 451 519 37,000  Level FlightAware
12:23 62.8990 -50.6490 251° West 450 518 37,000  Level FlightAware
12:24 62.8760 -50.7950 251° West 452 520 37,000  Level FlightAware
12:24 62.8500 -50.9600 251° West 453 521 37,000  Level FlightAware
12:25 62.8250 -51.1130 250° West 455 524 37,000  Level FlightAware
12:26 62.8000 -51.2650 250° West 456 525 37,000  Level FlightAware
12:26 62.7750 -51.4180 250° West 456 525 37,000  Level FlightAware
12:27 62.7540 -51.5450 250° West 456 525 37,000  Level FlightAware
12:27 62.7250 -51.7150 250° West 457 526 37,000  Level FlightAware
12:28 62.7010 -51.8590 250° West 458 527 37,000  Level FlightAware
12:28 62.6730 -52.0220 250° West 459 528 37,000  Level FlightAware
12:29 62.6490 -52.1620 250° West 461 531 37,000  Level FlightAware
12:30 62.6250 -52.3060 250° West 462 532 37,000  Level FlightAware
12:30 62.6000 -52.4490 249° West 463 533 37,000  Level FlightAware
12:31 62.5740 -52.5930 249° West 463 533 37,000  Level FlightAware
12:31 62.5440 -52.7670 250° West 463 533 37,000  Level FlightAware
12:32 62.5100 -52.9560 249° West 462 532 37,000  Level FlightAware
12:33 62.4760 -53.1380 248° West 462 532 37,000  Level FlightAware
12:33 62.4520 -53.2690 248° West 462 532 37,000  Level FlightAware
12:34 62.4290 -53.3930 248° West 462 532 37,000  Level FlightAware
12:35 62.4040 -53.5280 248° West 462 532 37,000  Level FlightAware
12:35 62.3790 -53.6590 248° West 462 532 37,000  Level FlightAware
12:36 62.3540 -53.7890 248° West 462 532 37,000  Level FlightAware
12:37 62.2970 -54.1070 249° West 466 536 37,000  Level FlightAware
12:37 62.2710 -54.2370 247° West 466 536 37,000  Level FlightAware
12:38 62.2450 -54.3680 247° West 466 536 37,000  Level FlightAware
12:39 62.2030 -54.5960 249° West 464 534 37,000  Level FlightAware
12:39 62.1780 -54.7250 247° West 464 534 37,000  Level FlightAware
12:40 62.1490 -54.8690 247° West 464 534 37,000  Level FlightAware
12:40 62.1140 -55.0460 247° West 463 533 37,000  Level FlightAware
12:41 62.0820 -55.2100 247° West 464 534 37,000  Level FlightAware
12:42 62.0500 -55.3640 246° West 464 534 37,000  Level FlightAware
12:42 62.0220 -55.4950 246° West 464 534 37,000  Level FlightAware
12:43 61.9970 -55.6160 246° West 464 534 37,000  Level FlightAware
12:43 61.9710 -55.7440 247° West 464 534 37,000  Level FlightAware
12:44 61.9430 -55.8750 246° West 464 534 37,000  Level FlightAware
12:45 61.9070 -56.0450 246° West 464 534 37,000  Level FlightAware
12:45 61.8800 -56.1760 246° West 464 534 37,000  Level FlightAware
12:46 61.8520 -56.3070 246° West 464 534 37,000  Level FlightAware
12:47 61.8270 -56.4270 246° West 464 534 37,000  Level FlightAware
12:47 61.7990 -56.5610 246° West 464 534 37,000  Level FlightAware
12:48 61.7740 -56.6810 246° West 464 534 37,000  Level FlightAware
12:48 61.7470 -56.8070 246° West 464 534 37,000  Level FlightAware
12:49 61.7200 -56.9340 246° West 464 534 37,000  Level FlightAware
12:50 61.6930 -57.0640 246° West 464 534 37,000  Level FlightAware
12:50 61.6640 -57.1980 246° West 464 534 37,000  Level FlightAware
12:50 61.6000 -57.4500 244° Southwest 430 495 37,000  Level Gander Center
12:51 61.6390 -57.3170 246° West 464 534 37,000  Level FlightAware
12:51 61.5500 -57.7000 247° West 470 541 37,000  Level Gander Center
12:52 61.4833 -57.9500 241° Southwest 470 541 37,000  Level Gander Center
12:53 61.5509 -57.7074 245° Southwest  Level FlightAware Approximate
12:53 61.4333 -58.2000 247° West 470 541 37,000  Level Gander Center
12:54 61.4985 -57.9359 244° Southwest  Level FlightAware Approximate
12:54 61.3833 -58.4333 246° West 470 541 37,000  Level Gander Center
12:55 61.4458 -58.1637 244° Southwest  Level FlightAware Approximate
12:55 61.3167 -58.6833 241° Southwest 480 552 37,000  Level Gander Center
12:56 61.2667 -58.9333 248° West 470 541 37,000  Level Gander Center
12:57 61.2167 -59.1833 248° West 470 541 37,000  Level Gander Center
12:58 61.1500 -59.4167 239° Southwest 470 541 37,000  Level Gander Center
12:59 61.0833 -59.6667 241° Southwest 470 541 37,000  Level Gander Center
13:00 61.0167 -59.8833 238° Southwest 470 541 37,000  Level Gander Center
13:01 61.0000 -60.1167 262° West 460 529 37,000  Level Gander Center
13:02 60.9500 -60.3667 248° West 460 529 37,000  Level Gander Center
13:03 60.9167 -60.6333 256° West 460 529 37,000  Level Gander Center
13:04 60.8667 -60.8667 246° West 460 529 37,000  Level Gander Center
13:05 60.8333 -61.1167 255° West 470 541 37,000  Level Gander Center
13:06 60.7833 -61.3833 249° West 470 541 37,000  Level Gander Center
13:07 60.7500 -61.6167 254° West 460 529 37,000  Level Gander Center
13:08 60.7167 -61.8667 255° West 460 529 37,000  Level Gander Center
13:09 60.6667 -62.1333 249° West 480 552 37,000  Level Gander Center
13:10 60.6333 -62.4000 256° West 460 529 37,000  Level Gander Center
13:12 60.5500 -62.6833 239° Southwest 460 529 37,000 360 Level Montreal Center
13:13 60.4833 -62.8833 236° Southwest 460 529 38,000 480 Climbing Montreal Center
13:14 60.4000 -63.0500 225° Southwest 460 529 38,000  Level Montreal Center
13:15 60.3000 -63.2333 222° Southwest 460 529 38,000  Level Montreal Center
13:16 60.2167 -63.4000 225° Southwest 460 529 38,000  Level Montreal Center
13:17 60.1167 -63.5833 222° Southwest 460 529 38,000  Level Montreal Center
13:18 60.0167 -63.7500 220° Southwest 460 529 38,000  Level Montreal Center
13:19 59.9167 -63.9167 220° Southwest 470 541 38,000  Level Montreal Center
13:20 59.8167 -64.1000 223° Southwest 470 541 38,000  Level Montreal Center
13:21 59.7333 -64.2500 222° Southwest 470 541 38,000  Level Montreal Center
13:22 59.6167 -64.4000 213° Southwest 470 541 38,000  Level Montreal Center
13:23 59.5167 -64.6000 225° Southwest 470 541 38,000  Level Montreal Center
13:24 59.4167 -64.7667 220° Southwest 470 541 38,000  Level Montreal Center
13:25 59.3000 -64.9000 210° Southwest 460 529 38,000  Level Montreal Center
13:26 59.2167 -65.0667 226° Southwest 460 529 38,000  Level Montreal Center
13:27 59.1167 -65.2333 221° Southwest 460 529 38,000  Level Montreal Center
13:28 59.0167 -65.3833 218° Southwest 460 529 38,000  Level Montreal Center
13:29 58.9167 -65.5500 221° Southwest 460 529 38,000  Level Montreal Center
13:30 58.8167 -65.7167 221° Southwest 460 529 38,000  Level Montreal Center
13:31 58.7167 -65.8667 218° Southwest 460 529 38,000  Level Montreal Center
13:32 58.6167 -66.0333 221° Southwest 460 529 38,000  Level Montreal Center
13:33 58.5167 -66.1833 218° Southwest 460 529 38,000  Level Montreal Center
13:34 58.4167 -66.3167 215° Southwest 460 529 38,000  Level Montreal Center
13:35 58.3333 -66.4667 223° Southwest 460 529 38,000  Level Montreal Center
13:36 58.2167 -66.6167 214° Southwest 460 529 38,000  Level Montreal Center
13:37 58.1167 -66.7667 218° Southwest 450 518 38,000  Level Montreal Center
13:38 58.0167 -66.9333 221° Southwest 450 518 38,000  Level Montreal Center
13:39 57.9167 -67.0833 219° Southwest 450 518 38,000  Level Montreal Center
13:40 57.8167 -67.2333 219° Southwest 450 518 38,000  Level Montreal Center
13:41 57.7167 -67.3833 219° Southwest 450 518 38,000  Level Montreal Center
13:42 57.6167 -67.5000 212° Southwest 450 518 38,000  Level Montreal Center
13:43 57.5167 -67.6500 219° Southwest 450 518 38,000  Level Montreal Center
13:44 57.4167 -67.8000 219° Southwest 450 518 38,000  Level Montreal Center
13:45 57.3167 -67.9500 219° Southwest 450 518 38,000  Level Montreal Center
13:46 57.2167 -68.0833 216° Southwest 460 529 38,000  Level Montreal Center
13:47 57.1167 -68.2333 219° Southwest 460 529 38,000  Level Montreal Center
13:48 57.0167 -68.3500 212° Southwest 460 529 38,000  Level Montreal Center
13:49 56.9000 -68.5000 215° Southwest 460 529 38,000  Level Montreal Center
13:50 56.8167 -68.6333 221° Southwest 460 529 38,000  Level Montreal Center
13:51 56.7000 -68.7833 215° Southwest 460 529 38,000  Level Montreal Center
13:52 56.6167 -68.9167 221° Southwest 460 529 38,000  Level Montreal Center
13:53 56.5000 -69.0667 215° Southwest 450 518 38,000  Level Montreal Center
13:54 56.3833 -69.2000 212° Southwest 450 518 38,000  Level Montreal Center
13:55 56.3000 -69.3500 225° Southwest 450 518 38,000  Level Montreal Center
13:56 56.1833 -69.4500 206° Southwest 450 518 38,000  Level Montreal Center
13:57 56.0833 -69.5833 217° Southwest 450 518 38,000  Level Montreal Center
13:58 56.0000 -69.7333 225° Southwest 450 518 38,000  Level Montreal Center
13:59 55.8833 -69.8667 213° Southwest 450 518 38,000  Level Montreal Center
14:00 55.7833 -70.0000 217° Southwest 450 518 38,000  Level Montreal Center
14:01 55.7000 -70.1333 222° Southwest 450 518 38,000  Level Montreal Center
14:02 55.5833 -70.2333 206° Southwest 440 506 38,000  Level Montreal Center
14:03 55.4833 -70.3667 217° Southwest 440 506 38,000  Level Montreal Center
14:04 55.3833 -70.5000 217° Southwest 440 506 38,000  Level Montreal Center
14:05 55.3000 -70.6000 214° Southwest 440 506 38,000  Level Montreal Center
14:06 55.1833 -70.7333 213° Southwest 440 506 38,000  Level Montreal Center
14:07 55.0667 -70.8667 213° Southwest 440 506 38,000  Level Montreal Center
14:08 54.9833 -71.0000 223° Southwest 440 506 38,000  Level Montreal Center
14:09 54.8833 -71.1000 210° Southwest 430 495 38,000  Level Montreal Center
14:10 54.7833 -71.2333 218° Southwest 440 506 38,000  Level Montreal Center
14:11 54.6833 -71.3333 210° Southwest 440 506 38,000  Level Montreal Center
14:12 54.5833 -71.4500 214° Southwest 430 495 38,000  Level Montreal Center
14:13 54.4667 -71.5833 214° Southwest 430 495 38,000  Level Montreal Center
14:14 54.3833 -71.7167 223° Southwest 430 495 38,000  Level Montreal Center
14:15 54.2833 -71.8167 210° Southwest 430 495 38,000  Level Montreal Center
14:16 54.1667 -71.9333 210° Southwest 430 495 38,000  Level Montreal Center
14:17 54.0667 -72.0667 218° Southwest 430 495 38,000  Level Montreal Center
14:18 53.9667 -72.1500 206° Southwest 430 495 38,000  Level Montreal Center
14:19 53.8667 -72.2833 218° Southwest 430 495 38,000  Level Montreal Center
14:20 53.7667 -72.4000 215° Southwest 430 495 38,000  Level Montreal Center
14:21 53.6833 -72.5000 215° Southwest 430 495 38,000  Level Montreal Center
14:22 53.5833 -72.6167 215° Southwest 420 483 38,000  Level Montreal Center
14:23 53.4833 -72.7167 211° Southwest 420 483 38,000  Level Montreal Center
14:24 53.3833 -72.8333 215° Southwest 420 483 38,000  Level Montreal Center
14:25 53.2833 -72.9167 206° Southwest 420 483 38,000  Level Montreal Center
14:26 53.1833 -73.0333 215° Southwest 420 483 38,000  Level Montreal Center
14:27 53.0667 -73.1667 214° Southwest 420 483 38,000  Level Montreal Center
14:28 52.9667 -73.2500 207° Southwest 420 483 38,000  Level Montreal Center
14:29 52.8833 -73.3667 220° Southwest 420 483 38,000  Level Montreal Center
14:30 52.7833 -73.4500 207° Southwest 410 472 38,000  Level Montreal Center
14:31 52.7000 -73.5667 220° Southwest 410 472 38,000  Level Montreal Center
14:32 52.6000 -73.6667 211° Southwest 410 472 38,000  Level Montreal Center
14:33 52.5000 -73.7833 215° Southwest 410 472 38,000  Level Montreal Center
14:34 52.4000 -73.8667 207° Southwest 410 472 38,000  Level Montreal Center
14:35 52.3167 -73.9833 221° Southwest 400 460 38,000  Level Montreal Center
14:36 52.2167 -74.0667 207° Southwest 400 460 38,000  Level Montreal Center
14:37 52.1167 -74.1500 207° Southwest 400 460 38,000  Level Montreal Center
14:38 52.0167 -74.2667 216° Southwest 400 460 38,000  Level Montreal Center
14:39 51.9167 -74.3500 207° Southwest 400 460 38,000  Level Montreal Center
14:40 51.8167 -74.4667 216° Southwest 400 460 38,000  Level Montreal Center
14:41 51.7333 -74.5500 212° Southwest 400 460 38,000  Level Montreal Center
14:42 51.6333 -74.6333 207° Southwest 400 460 38,000  Level Montreal Center
14:43 51.5333 -74.7500 216° Southwest 400 460 38,000  Level Montreal Center
14:44 51.4500 -74.8333 212° Southwest 400 460 38,000  Level Montreal Center
14:45 51.3500 -74.9333 212° Southwest 400 460 38,000  Level Montreal Center
14:46 51.2500 -75.0167 208° Southwest 400 460 38,000  Level Montreal Center
14:47 51.1667 -75.1333 221° Southwest 400 460 38,000  Level Montreal Center
14:48 51.0667 -75.2167 208° Southwest 400 460 38,000  Level Montreal Center
14:49 50.9667 -75.3000 208° Southwest 400 460 38,000  Level Montreal Center
14:50 50.8833 -75.4000 217° Southwest 390 449 38,000  Level Montreal Center
14:51 50.7833 -75.4833 208° Southwest 400 460 38,000  Level Montreal Center
14:52 50.6833 -75.5667 208° Southwest 400 460 38,000  Level Montreal Center
14:53 50.5833 -75.6667 212° Southwest 400 460 38,000  Level Montreal Center
14:54 50.5000 -75.7500 212° Southwest 400 460 38,000  Level Montreal Center
14:55 50.4000 -75.8667 217° Southwest 410 472 38,000  Level Montreal Center
14:56 50.3000 -75.9333 203° Southwest 410 472 38,000  Level Montreal Center
14:57 50.2000 -76.0167 208° Southwest 410 472 38,000  Level Montreal Center
14:58 50.1000 -76.1167 213° Southwest 410 472 38,000  Level Montreal Center
14:59 50.0000 -76.2000 208° Southwest 410 472 38,000  Level Montreal Center
15:00 49.8833 -76.3000 209° Southwest 410 472 38,000  Level Montreal Center
15:01 49.8000 -76.3833 213° Southwest 410 472 38,000  Level Montreal Center
15:02 49.7000 -76.4833 213° Southwest 410 472 38,000  Level Montreal Center
15:03 49.6000 -76.5667 208° Southwest 400 460 38,000  Level Montreal Center
15:04 49.5000 -76.6667 213° Southwest 410 472 38,000  Level Montreal Center
15:05 49.4000 -76.7333 203° Southwest 420 483 38,000  Level Montreal Center
15:06 49.3167 -76.8500 222° Southwest 400 460 38,000  Level Montreal Center
15:07 49.2167 -76.9167 204° Southwest 410 472 38,000  Level Montreal Center
15:08 49.1167 -77.0167 213° Southwest 410 472 38,000  Level Montreal Center
15:09 49.0167 -77.1000 209° Southwest 410 472 38,000  Level Montreal Center
15:10 48.9167 -77.2000 213° Southwest 410 472 38,000  Level Montreal Center
15:11 48.8000 -77.2667 201° Southwest 410 472 38,000  Level Montreal Center
15:12 48.7000 -77.3667 213° Southwest 410 472 38,000  Level Montreal Center
15:13 48.6000 -77.4667 213° Southwest 410 472 38,000  Level Montreal Center
15:19 47.9920 -77.9280 213° Southwest 429 494 38,000  Level FlightAware
15:19 47.9340 -77.9630 202° Southwest 429 494 38,000  Level FlightAware
15:20 47.8780 -77.9970 202° Southwest 429 494 38,000  Level FlightAware
15:20 47.7870 -78.0470 200° South 434 499 38,000  Level FlightAware
15:21 47.7270 -78.0820 201° Southwest 436 502 38,000  Level FlightAware
15:22 47.6520 -78.1250 201° Southwest 437 503 38,000  Level FlightAware
15:22 47.5930 -78.1600 202° Southwest 436 502 38,000  Level FlightAware
15:23 47.5240 -78.1990 201° Southwest 435 501 38,000  Level FlightAware
15:23 47.4570 -78.2380 201° Southwest 434 499 38,000  Level FlightAware
15:24 47.3980 -78.2710 201° Southwest 433 498 38,000  Level FlightAware
15:24 47.3330 -78.3080 201° Southwest 434 499 38,000  Level FlightAware
15:25 47.2640 -78.3480 201° Southwest 434 499 38,000  Level FlightAware
15:26 47.1960 -78.3860 201° Southwest 434 499 38,000  Level FlightAware
15:26 47.1330 -78.4220 201° Southwest 434 499 38,000  Level FlightAware
15:27 47.0670 -78.4590 201° Southwest 435 501 38,000  Level FlightAware
15:27 47.0060 -78.4940 201° Southwest 437 503 38,000  Level FlightAware
15:28 46.9330 -78.5340 201° Southwest 439 505 38,000  Level FlightAware
15:29 46.8720 -78.5690 201° Southwest 439 505 38,000  Level FlightAware
15:29 46.8000 -78.6090 201° Southwest 438 504 38,000  Level FlightAware
15:30 46.7330 -78.6460 201° Southwest 438 504 38,000  Level FlightAware
15:30 46.6730 -78.6800 201° Southwest 439 505 38,000  Level FlightAware
15:31 46.6030 -78.7180 200° South 440 506 38,000  Level FlightAware
15:32 46.5360 -78.7550 201° Southwest 440 506 38,000  Level FlightAware
15:32 46.4670 -78.7930 201° Southwest 440 506 38,000  Level FlightAware
15:33 46.4060 -78.8270 201° Southwest 440 506 38,000  Level FlightAware
15:33 46.3370 -78.8640 200° South 439 505 38,000  Level FlightAware
15:34 46.2680 -78.9020 201° Southwest 441 507 38,000  Level FlightAware
15:34 46.2070 -78.9360 201° Southwest 442 509 38,000  Level FlightAware
15:35 46.1350 -78.9750 201° Southwest 443 510 38,000  Level FlightAware
15:36 46.0700 -79.0100 200° South 444 511 38,000  Level FlightAware
15:36 45.9970 -79.0490 200° South 445 512 38,000  Level FlightAware
15:37 45.9310 -79.0850 201° Southwest 445 512 38,000  Level FlightAware
15:37 45.8630 -79.1210 200° South 446 513 38,000  Level FlightAware
15:38 45.8000 -79.1550 201° Southwest 447 514 38,000  Level FlightAware
15:39 45.7340 -79.1910 201° Southwest 447 514 38,000  Level FlightAware
15:39 45.6610 -79.2300 200° South 446 513 38,000  Level FlightAware
15:40 45.5980 -79.2630 200° South 446 513 38,000  Level FlightAware
15:40 45.5300 -79.2990 200° South 445 512 38,000  Level FlightAware
15:41 45.4630 -79.3350 201° Southwest 446 513 38,000  Level FlightAware
15:41 45.3970 -79.3700 200° South 446 513 38,000  Level FlightAware
15:42 45.3280 -79.4060 200° South 444 511 38,000  Level FlightAware
15:43 45.2590 -79.4420 200° South 443 510 38,000  Level FlightAware
15:43 45.1810 -79.4830 200° South 443 510 38,000  Level FlightAware
15:44 45.1130 -79.5190 200° South 443 510 38,000  Level FlightAware
15:44 45.0560 -79.5490 200° South 444 511 38,000  Level FlightAware
15:45 44.9870 -79.5840 200° South 445 512 38,000  Level FlightAware
15:46 44.9100 -79.6240 200° South 445 512 38,000  Level FlightAware
15:46 44.8490 -79.6560 200° South 445 512 38,000  Level FlightAware
15:47 44.7850 -79.6890 200° South 446 513 38,000  Level FlightAware
15:47 44.7260 -79.7190 200° South 446 513 38,000  Level FlightAware
15:48 44.6500 -79.7590 201° Southwest 445 512 38,000  Level FlightAware
15:49 44.5760 -79.8020 202° Southwest 443 510 38,000  Level FlightAware
15:49 44.5150 -79.8520 210° Southwest 442 509 38,000  Level FlightAware
15:50 44.4480 -79.9140 213° Southwest 442 509 38,000  Level FlightAware
15:50 44.3970 -79.9600 213° Southwest 441 507 38,000  Level FlightAware
15:51 44.2740 -80.0710 213° Southwest 442 509 38,000  Level FlightAware
15:52 44.2160 -80.1220 212° Southwest 440 506 38,000  Level FlightAware
15:53 44.1510 -80.1800 213° Southwest 439 505 38,000  Level FlightAware
15:53 44.0930 -80.2310 212° Southwest 440 506 38,000  Level FlightAware
15:54 44.0280 -80.2900 213° Southwest 441 507 38,000  Level FlightAware
15:54 43.9730 -80.3380 212° Southwest 442 509 38,000  Level FlightAware
15:55 43.9170 -80.3870 212° Southwest 443 510 38,000  Level FlightAware
15:56 43.8500 -80.4460 212° Southwest 443 510 38,000  Level FlightAware
15:56 43.7880 -80.5010 213° Southwest 444 511 38,000  Level FlightAware
15:57 43.7140 -80.5650 212° Southwest 445 512 38,000  Level FlightAware
15:57 43.6550 -80.6180 213° Southwest 446 513 38,000  Level FlightAware
15:58 43.5950 -80.6700 212° Southwest 447 514 38,000  Level FlightAware
15:59 43.5330 -80.7240 212° Southwest 447 514 38,000  Level FlightAware
15:59 43.4780 -80.7710 212° Southwest 447 514 38,000  Level FlightAware
16:00 43.4050 -80.8340 212° Southwest 446 513 38,000  Level FlightAware
16:00 43.3520 -80.8800 212° Southwest 446 513 38,000  Level FlightAware
16:01 43.2830 -80.9400 212° Southwest 446 513 38,000  Level FlightAware
16:01 43.2300 -80.9850 212° Southwest 446 513 38,000  Level FlightAware
16:02 43.1700 -81.0360 212° Southwest 447 514 38,000  Level FlightAware
16:03 43.1050 -81.0920 212° Southwest 447 514 38,000  Level FlightAware
16:03 43.0400 -81.1450 211° Southwest 447 514 38,000  Level FlightAware
16:04 42.9800 -81.1830 205° Southwest 447 514 38,000  Level FlightAware
16:04 42.9100 -81.2270 205° Southwest 447 514 38,000  Level FlightAware
16:05 42.8500 -81.2650 205° Southwest 447 514 38,000  Level FlightAware
16:06 42.7850 -81.3060 205° Southwest 448 516 38,000  Level FlightAware
16:06 42.7140 -81.3490 204° Southwest 450 518 38,000  Level FlightAware
16:07 42.6450 -81.3910 204° Southwest 451 519 38,000  Level FlightAware
16:07 42.5780 -81.4320 204° Southwest 452 520 38,000  Level FlightAware
16:08 42.5170 -81.4690 204° Southwest 453 521 38,000  Level FlightAware
16:08 42.4460 -81.5120 204° Southwest 453 521 38,000  Level FlightAware
16:09 42.3830 -81.5510 205° Southwest 453 521 38,000  Level FlightAware
16:10 42.3140 -81.5930 204° Southwest 453 521 38,000  Level FlightAware
16:10 42.2430 -81.6360 204° Southwest 453 521 38,000  Level FlightAware
16:11 42.2020 -81.6600 203° Southwest 453 521 38,000  Level FlightAware
16:11 42.1040 -81.7190 204° Southwest 454 522 38,000  Level FlightAware
16:12 42.0390 -81.7580 204° Southwest 455 524 38,000  Level FlightAware
16:13 41.9780 -81.7950 204° Southwest 456 525 38,000  Level FlightAware
16:13 41.8970 -81.8430 204° Southwest 456 525 38,000  Level FlightAware
16:14 41.8330 -81.8810 204° Southwest 455 524 38,000  Level FlightAware
16:14 41.7630 -81.9230 204° Southwest 455 524 38,000  Level FlightAware
16:15 41.7030 -81.9590 204° Southwest 456 525 38,000  Level FlightAware
16:16 41.6310 -82.0020 204° Southwest 456 525 38,000  Level FlightAware
16:16 41.5630 -82.0420 204° Southwest 455 524 38,000  Level FlightAware
16:17 41.4980 -82.0800 204° Southwest 453 521 38,000  Level FlightAware
16:17 41.4270 -82.1220 204° Southwest 452 520 38,000  Level FlightAware
16:18 41.3420 -82.1660 201° Southwest 453 521 38,000  Level FlightAware
16:19 41.2830 -82.1870 195° South 454 522 38,000  Level FlightAware
16:19 41.2060 -82.2160 196° South 455 524 38,000  Level FlightAware
16:20 41.1340 -82.2420 195° South 456 525 38,000  Level FlightAware
16:20 41.0600 -82.2690 195° South 455 524 38,000  Level FlightAware
16:21 40.9940 -82.2920 195° South 456 525 38,000  Level FlightAware
16:22 40.9170 -82.3200 195° South 458 527 38,000  Level FlightAware
16:22 40.8530 -82.3430 195° South 459 528 38,000  Level FlightAware
16:23 40.7780 -82.3690 195° South 460 529 38,000  Level FlightAware
16:23 40.7010 -82.3960 195° South 461 531 38,000  Level FlightAware
16:24 40.6260 -82.4230 195° South 462 532 38,000  Level FlightAware
16:25 40.5510 -82.4490 195° South 464 534 38,000  Level FlightAware
16:25 40.4890 -82.4710 195° South 464 534 38,000  Level FlightAware
16:26 40.4110 -82.4980 195° South 464 534 38,000  Level FlightAware
16:26 40.3360 -82.5240 195° South 464 534 38,000  Level FlightAware
16:27 40.2600 -82.5510 195° South 464 534 38,000  Level FlightAware
16:27 40.1930 -82.5740 195° South 463 533 38,000  Level FlightAware
16:28 40.1170 -82.5890 189° South 464 534 38,000  Level FlightAware
16:29 40.0480 -82.5940 183° South 463 533 38,000  Level FlightAware
16:29 39.9750 -82.6000 184° South 463 533 38,000  Level FlightAware
16:30 39.9030 -82.6050 183° South 462 532 38,000  Level FlightAware
16:30 39.8170 -82.6110 183° South 462 532 38,000  Level FlightAware
16:31 39.7390 -82.6160 183° South 463 533 38,000  Level FlightAware
16:31 39.6720 -82.6210 183° South 464 534 38,000  Level FlightAware
16:32 39.5940 -82.6260 183° South 465 535 38,000  Level FlightAware
16:33 39.5200 -82.6310 183° South 467 537 38,000  Level FlightAware
16:33 39.4400 -82.6360 183° South 468 539 38,000  Level FlightAware
16:34 39.3710 -82.6410 183° South 468 539 38,000  Level FlightAware
16:34 39.2910 -82.6460 183° South 469 540 38,000  Level FlightAware
16:35 39.2120 -82.6520 183° South 469 540 38,000  Level FlightAware
16:36 39.1450 -82.6560 183° South 470 541 38,000  Level FlightAware
16:36 39.0690 -82.6610 183° South 470 541 38,000  Level FlightAware
16:37 38.9990 -82.6660 183° South 471 542 38,000  Level FlightAware
16:37 38.9150 -82.6710 183° South 471 542 38,000  Level FlightAware
16:38 38.8320 -82.6770 183° South 472 543 38,000  Level FlightAware
16:39 38.7540 -82.6820 183° South 473 544 38,000  Level FlightAware
16:39 38.6930 -82.6860 183° South 474 545 38,000  Level FlightAware
16:40 38.6070 -82.6910 183° South 474 545 38,000  Level FlightAware
16:40 38.5310 -82.6960 183° South 475 547 38,000  Level FlightAware
16:41 38.4470 -82.7020 183° South 474 545 38,000  Level FlightAware
16:41 38.3780 -82.7060 183° South 474 545 38,000  Level FlightAware
16:42 38.3010 -82.7110 183° South 475 547 38,000  Level FlightAware
16:43 38.2180 -82.7170 183° South 475 547 38,000  Level FlightAware
16:43 38.1410 -82.7220 183° South 474 545 38,000  Level FlightAware
16:43 38.1060 -82.7240 183° South 475 547 38,000  Level FlightAware ADS-B
16:44 38.0000 -82.7310 183° South 474 545 38,000  Level FlightAware
16:45 37.9160 -82.7360 183° South 475 547 38,000  Level FlightAware
16:45 37.8870 -82.7380 183° South 475 547 38,000  Level FlightAware ADS-B
16:46 37.7740 -82.7460 183° South 478 550 38,000  Level FlightAware
16:47 37.6840 -82.7670 190° South 477 549 38,000  Level FlightAware
16:47 37.6200 -82.7940 198° South 476 548 38,000  Level FlightAware
16:48 37.5390 -82.8420 205° Southwest 474 545 38,000  Level FlightAware
16:48 37.4710 -82.8870 208° Southwest 476 548 38,000  Level FlightAware
16:49 37.4080 -82.9290 208° Southwest 477 549 38,000  Level FlightAware
16:50 37.3360 -82.9760 207° Southwest 477 549 38,000  Level FlightAware
16:50 37.3124 -82.9920 208° Southwest 478 550 38,000  Level FlightAware ADS-B
16:50 37.2527 -83.0310 207° Southwest 479 551 38,000  Level FlightAware ADS-B
16:51 37.1902 -83.0718 207° Southwest 478 550 38,000  Level FlightAware ADS-B
16:52 37.0969 -83.1327 208° Southwest 478 550 38,000  Level FlightAware ADS-B
16:52 37.0379 -83.1710 207° Southwest 478 550 38,000  Level FlightAware ADS-B
16:53 36.9722 -83.2137 207° Southwest 478 550 38,000  Level FlightAware ADS-B
16:53 36.9082 -83.2551 207° Southwest 478 550 38,000  Level FlightAware ADS-B
16:54 36.8479 -83.2941 207° Southwest 478 550 38,000  Level FlightAware ADS-B
16:54 36.7889 -83.3322 207° Southwest 478 550 38,000  Level FlightAware ADS-B
16:55 36.7207 -83.3761 207° Southwest 477 549 38,000  Level FlightAware ADS-B
16:55 36.6605 -83.4147 207° Southwest 476 548 38,000 60 Level FlightAware ADS-B
16:56 36.5966 -83.4557 207° Southwest 475 547 38,100 240 Climbing FlightAware ADS-B
16:56 36.5354 -83.4949 207° Southwest 469 540 38,300 480 Climbing FlightAware ADS-B
16:57 36.4772 -83.5321 207° Southwest 466 536 38,600 540 Climbing FlightAware ADS-B
16:57 36.4187 -83.5696 207° Southwest 461 531 38,900 360 Climbing FlightAware ADS-B
16:58 36.3608 -83.6065 207° Southwest 463 533 39,000 60 Climbing FlightAware ADS-B
16:58 36.3009 -83.6446 207° Southwest 464 534 39,000  Level FlightAware ADS-B
16:59 36.2434 -83.6812 207° Southwest 466 536 39,000  Level FlightAware ADS-B
16:59 36.1777 -83.7228 207° Southwest 469 540 39,000  Level FlightAware ADS-B
17:00 36.1145 -83.7627 207° Southwest 470 541 39,000  Level FlightAware ADS-B
17:01 36.0523 -83.8020 207° Southwest 468 539 39,000  Level FlightAware ADS-B
17:01 35.9934 -83.8391 207° Southwest 468 539 39,000  Level FlightAware ADS-B
17:01 35.9522 -83.8637 206° Southwest 470 541 39,000  Level FlightAware ADS-B
17:02 35.8904 -83.8911 200° South 472 543 39,000  Level FlightAware ADS-B
17:02 35.8357 -83.9090 195° South 476 548 39,000  Level FlightAware ADS-B
17:03 35.7710 -83.9252 191° South 478 550 39,000  Level FlightAware ADS-B
17:03 35.7037 -83.9431 192° South 478 550 39,000  Level FlightAware ADS-B
17:04 35.6309 -83.9615 192° South 480 552 39,000  Level FlightAware ADS-B
17:05 35.5258 -83.9870 191° South 483 556 39,000  Level FlightAware ADS-B
17:05 35.4581 -84.0033 191° South 485 558 39,000  Level FlightAware ADS-B
17:06 35.3917 -84.0193 191° South 487 560 39,000  Level FlightAware ADS-B
17:06 35.3252 -84.0353 191° South 488 562 39,000  Level FlightAware ADS-B
17:07 35.2538 -84.0525 191° South 489 563 39,000  Level FlightAware ADS-B
17:07 35.1870 -84.0686 191° South 490 564 39,000  Level FlightAware ADS-B
17:08 35.0869 -84.0925 191° South 490 564 39,000  Level FlightAware ADS-B
17:09 35.0190 -84.1088 191° South 490 564 39,000  Level FlightAware ADS-B
17:09 34.9521 -84.1247 191° South 489 563 39,000  Level FlightAware ADS-B
17:10 34.8843 -84.1409 191° South 489 563 39,000  Level FlightAware ADS-B
17:10 34.8119 -84.1581 191° South 489 563 39,000  Level FlightAware ADS-B
17:11 34.7441 -84.1742 191° South 489 563 39,000  Level FlightAware ADS-B
17:11 34.6701 -84.1917 191° South 490 564 39,000  Level FlightAware ADS-B
17:12 34.6050 -84.2070 191° South 491 565 39,000  Level FlightAware
17:12 34.5335 -84.2240 191° South 491 565 39,000  Level FlightAware ADS-B
17:13 34.4615 -84.2410 191° South 493 567 39,000  Level FlightAware ADS-B
17:13 34.3931 -84.2572 191° South 494 568 39,000  Level FlightAware ADS-B
17:14 34.3251 -84.2731 191° South 494 568 39,000  Level FlightAware ADS-B
17:14 34.2547 -84.2896 191° South 495 570 39,000  Level FlightAware ADS-B
17:15 34.1220 -84.3210 191° South 497 572 39,000  Level FlightAware
17:16 34.0480 -84.3380 191° South 499 574 39,000  Level FlightAware
17:16 33.9720 -84.3560 191° South 492 566 39,000  Level FlightAware
17:17 33.8980 -84.3730 191° South 492 566 39,000  Level FlightAware
17:17 33.8204 -84.3909 191° South 500 575 39,000  Level FlightAware ADS-B
17:18 33.7452 -84.4083 191° South 500 575 39,000  Level FlightAware ADS-B
17:18 33.6839 -84.4223 191° South 502 578 39,000  Level FlightAware ADS-B
17:19 33.6026 -84.4319 186° South 501 577 39,000  Level FlightAware ADS-B
17:19 33.5694 -84.4328 181° South 510 587 39,000  Level FlightAware ADS-B
17:20 33.4976 -84.4314 179° South 512 589 39,000  Level FlightAware ADS-B
17:20 33.4257 -84.4305 179° South 513 590 39,000  Level FlightAware ADS-B
17:21 33.3486 -84.4293 179° South 515 593 39,000  Level FlightAware ADS-B
17:22 33.2476 -84.4272 179° South 516 594 39,000  Level FlightAware ADS-B
17:22 33.1554 -84.4254 179° South 516 594 39,000  Level FlightAware ADS-B
17:23 33.0430 -84.4230 179° South 517 595 39,000  Level FlightAware
17:24 32.9450 -84.4210 179° South 517 595 39,000  Level FlightAware
17:24 32.8600 -84.4190 179° South 517 595 39,000  Level FlightAware
17:25 32.7810 -84.4180 179° South 518 596 39,000  Level FlightAware
17:25 32.6970 -84.4160 179° South 518 596 39,000  Level FlightAware
17:26 32.6060 -84.4140 179° South 518 596 39,000  Level FlightAware
17:27 32.5330 -84.4130 179° South 518 596 39,000  Level FlightAware
17:27 32.4600 -84.4110 179° South 518 596 39,000  Level FlightAware
17:28 32.3860 -84.4100 179° South 518 596 39,000  Level FlightAware
17:29 32.3130 -84.4080 179° South 518 596 39,000  Level FlightAware
17:29 32.1700 -84.4060 179° South 521 600 39,000  Level FlightAware
17:30 32.0780 -84.4040 179° South 521 600 39,000  Level FlightAware
17:30 31.9840 -84.4020 179° South 521 600 39,000  Level FlightAware
17:31 31.9110 -84.4000 179° South 521 600 39,000  Level FlightAware
17:32 31.8060 -84.3980 179° South 521 600 39,000  Level FlightAware
17:32 31.6880 -84.3960 179° South 522 601 39,000  Level FlightAware
17:33 31.5970 -84.3940 179° South 523 602 39,000  Level FlightAware
17:34 31.5210 -84.3930 179° South 524 603 39,000  Level FlightAware
17:34 31.4430 -84.3900 178° South 526 605 39,000  Level FlightAware
17:34 31.3970 -84.3790 168° South 529 609 39,000  Level FlightAware
17:35 31.3210 -84.3400 156° South 531 611 39,000  Level FlightAware
17:36 31.2440 -84.2990 156° South 532 612 39,000  Level FlightAware
17:36 31.1620 -84.2560 156° South 532 612 39,000  Level FlightAware
17:37 31.0789 -84.2113 155° Southeast 530 610 39,000  Level FlightAware ADS-B (KTLH)
17:37 31.0043 -84.1724 156° South 534 615 39,000  Level FlightAware ADS-B (KTLH)
17:38 30.9206 -84.1289 156° South 534 615 39,000  Level FlightAware ADS-B (KTLH)
17:38 30.8533 -84.0938 156° South 534 615 39,000  Level FlightAware ADS-B (KTLH)
17:39 30.7840 -84.0577 156° South 534 615 39,000  Level FlightAware ADS-B (KTLH)
17:39 30.7176 -84.0232 156° South 534 615 39,000  Level FlightAware ADS-B (KTLH)
17:40 30.6496 -83.9879 156° South 535 616 39,000  Level FlightAware ADS-B (KTLH)
17:40 30.5830 -83.9535 156° South 535 616 39,000  Level FlightAware ADS-B (KTLH)
17:41 30.4950 -83.9080 156° South 536 617 39,000  Level FlightAware ADS-B (KTLH)
17:42 30.4245 -83.8717 156° South 535 616 39,000  Level FlightAware ADS-B (KTLH)
17:42 30.3555 -83.8361 156° South 535 616 39,000  Level FlightAware ADS-B (KTLH)
17:43 30.2870 -83.8010 156° South 534 615 39,000  Level FlightAware
17:43 30.2693 -83.7918 156° South 533 613 39,000  Level FlightAware ADS-B (KTLH)
17:43 30.1831 -83.7475 156° South 533 613 39,000  Level FlightAware ADS-B (KTLH)
17:44 30.0901 -83.6999 156° South 533 613 39,000  Level FlightAware ADS-B (KTLH)
17:45 30.0334 -83.6709 156° South 533 613 39,000  Level FlightAware ADS-B (KTLH)
17:45 29.9010 -83.6030 156° South 531 611 39,000  Level FlightAware
17:46 29.8190 -83.5620 157° South 530 610 39,000  Level FlightAware
17:46 29.7793 -83.5414 156° South 530 610 39,000  Level FlightAware ADS-B (KTLH)
17:47 29.6690 -83.4860 156° South 529 609 39,000  Level FlightAware
17:48 29.5880 -83.4450 156° South 527 606 39,000  Level FlightAware
17:48 29.5000 -83.4000 156° South 526 605 39,000  Level FlightAware
17:49 29.4290 -83.3640 156° South 526 605 39,000  Level FlightAware
17:50 29.3500 -83.3240 156° South 525 604 39,000  Level FlightAware
17:50 29.2770 -83.2870 156° South 525 604 39,000  Level FlightAware
17:51 29.1950 -83.2470 157° South 524 603 39,000  Level FlightAware
17:51 29.1240 -83.2110 156° South 524 603 39,000  Level FlightAware
17:52 29.0340 -83.1660 156° South 525 604 39,000  Level FlightAware
17:52 28.9560 -83.1270 156° South 525 604 39,000  Level FlightAware
17:53 28.8770 -83.0880 157° South 525 604 39,000  Level FlightAware
17:54 28.8040 -83.0510 156° South 525 604 39,000  Level FlightAware
17:54 28.7250 -83.0120 157° South 523 602 39,000  Level FlightAware
17:55 28.6550 -82.9770 156° South 523 602 39,000  Level FlightAware
17:55 28.5640 -82.9320 157° South 522 601 39,000  Level FlightAware
17:56 28.4940 -82.8970 156° South 521 600 39,000  Level FlightAware
17:57 28.4110 -82.8560 157° South 522 601 39,000  Level FlightAware
17:57 28.3390 -82.8210 157° South 522 601 39,000  Level FlightAware
17:58 28.2560 -82.7800 156° South 523 602 39,000  Level FlightAware
17:58 28.1850 -82.7450 157° South 524 603 39,000  Level FlightAware
17:59 28.1030 -82.7050 157° South 524 603 39,000  Level FlightAware
17:59 28.0210 -82.6640 156° South 524 603 39,000  Level FlightAware
18:00 27.9440 -82.6270 157° South 525 604 39,000  Level FlightAware
18:01 27.8690 -82.5900 156° South 524 603 39,000  Level FlightAware
18:01 27.7900 -82.5520 157° South 523 602 39,000  Level FlightAware
18:02 27.7100 -82.5130 157° South 523 602 39,000  Level FlightAware
18:02 27.6350 -82.4760 156° South 524 603 39,000  Level FlightAware
18:03 27.5590 -82.4470 161° South 522 601 39,000  Level FlightAware
18:04 27.4780 -82.4450 179° South 519 597 39,000  Level FlightAware
18:04 27.3810 -82.4470 181° South 518 596 39,000  Level FlightAware
18:05 27.3060 -82.4490 181° South 517 595 39,000  Level FlightAware
18:05 27.2240 -82.4500 181° South 516 594 39,000  Level FlightAware
18:06 27.1350 -82.4520 181° South 515 593 39,000  Level FlightAware
18:06 27.0480 -82.4540 181° South 515 593 39,000  Level FlightAware
18:07 26.9690 -82.4560 181° South 516 594 39,000  Level FlightAware
18:08 26.8890 -82.4580 181° South 517 595 39,000  Level FlightAware
18:08 26.8040 -82.4600 181° South 517 595 39,000  Level FlightAware
18:09 26.7290 -82.4610 181° South 518 596 39,000  Level FlightAware
18:09 26.6410 -82.4630 181° South 518 596 39,000  Level FlightAware
18:10 26.5520 -82.4650 181° South 511 588 39,000  Level FlightAware
18:11 26.4720 -82.4670 181° South 512 589 39,000  Level FlightAware
18:11 26.3860 -82.4690 181° South 512 589 39,000  Level FlightAware
18:12 26.3030 -82.4700 181° South 513 590 39,000  Level FlightAware
18:12 26.2170 -82.4720 181° South 513 590 39,000  Level FlightAware
18:13 26.1380 -82.4740 181° South 512 589 39,000  Level FlightAware
18:13 26.0490 -82.4760 181° South 512 589 39,000  Level FlightAware
18:14 25.9810 -82.4770 181° South 512 589 39,000  Level FlightAware
18:15 25.8850 -82.4790 181° South 513 590 39,000  Level FlightAware
18:15 25.7920 -82.4810 181° South 514 592 39,000  Level FlightAware
18:16 25.7080 -82.4830 181° South 515 593 39,000 -180 Level FlightAware
18:16 25.6260 -82.4850 181° South 516 594 38,800 -720 Descending FlightAware
18:17 25.5260 -82.4870 181° South 517 595 38,100 -1,020 Descending FlightAware
18:18 25.4400 -82.4890 181° South 500 575 37,500 -1,080 Descending FlightAware
18:18 25.3610 -82.4900 181° South 502 578 36,900 -1,020 Descending FlightAware
18:19 25.2850 -82.4920 181° South 499 574 36,400 -900 Descending FlightAware
18:19 25.2090 -82.4940 181° South 482 555 35,900 -1,080 Descending FlightAware
18:20 25.1260 -82.4950 181° South 481 554 35,200 -600 Descending FlightAware
18:21 25.0520 -82.4970 181° South 481 554 35,200  Level FlightAware
18:21 24.9820 -82.4980 181° South 481 554 35,200 -1,500 Level FlightAware
18:22 24.8890 -82.5000 181° South 463 533 33,500 -2,040 Descending FlightAware
18:23 24.7820 -82.5030 181° South 450 518 32,500 -660 Descending FlightAware
18:23 24.7100 -82.5040 181° South 450 518 32,500 -1,560 Level FlightAware
18:24 24.6340 -82.5060 181° South 450 518 30,500 -1,740 Descending FlightAware
18:24 24.5670 -82.5070 181° South 450 518 30,500  Level FlightAware
18:25 24.5030 -82.5080 181° South 450 518 30,500  Level FlightAware
18:26 24.4380 -82.5090 181° South 450 518 30,500  Level FlightAware
18:26 24.3740 -82.5110 182° South 450 518 30,500  Level FlightAware
18:27 24.3110 -82.5120 181° South 450 518 30,500  Level FlightAware
18:27 24.2450 -82.5130 181° South 450 518 30,500  Level FlightAware
18:28 24.1800 -82.5140 181° South 450 518 30,500  Level FlightAware
18:29 24.1160 -82.5160 182° South 450 518 30,500  Level FlightAware
18:29 24.0520 -82.5170 181° South 450 518 30,500  Level FlightAware
18:30 23.9710 -82.5180 181° South 450 518 30,500  Level FlightAware
18:31 23.9070 -82.5190 181° South 450 518 30,500  Level FlightAware
18:31 23.8430 -82.5210 182° South 450 518 30,500  Level FlightAware
18:32 23.7780 -82.5220 181° South 450 518 30,500  Level FlightAware
18:32 23.7140 -82.5230 181° South 450 518 30,500  Level FlightAware
18:33 23.6490 -82.5240 181° South 450 518 30,500  Level FlightAware
18:36 23.3614 -82.4311 175° South  Level FlightAware Approximate
18:37 23.2400 -82.4190 175° South  Level FlightAware Approximate
18:38 23.1185 -82.4137 170° South  Level FlightAware Approximate
18:39 22.9978 -82.4000 180° South  Level FlightAware Approximate
18:40 22.9891 -82.4091 180° South  Level Estimated
18:41 22.9891 -82.4091 180° South  Level Estimated
18:42 22.9891 -82.4091 180° South  Level Estimated
18:43 22.9891 -82.4091 180° South  Level Estimated
18:44 22.9891 -82.4091 180° South  Level Estimated
18:45 22.9891 -82.4091 180° South  Level Estimated
18:46 22.9891 -82.4091 180° South  Level Estimated
18:47 22.9891 -82.4091 180° South  Level Estimated
18:48 22.9891 -82.4091 180° South  Level Estimated
18:49 22.9891 -82.4091 180° South  Level Estimated
18:50 22.9891 -82.4091 180° South  Level Estimated
18:51 22.9891 -82.4091 180° South  Level Estimated
18:52 22.9891 -82.4091 180° South  Level Estimated
18:53 22.9891 -82.4091 180° South  Level Estimated
18:54 22.9891 -82.4091 180° South  Level Estimated
18:55 22.9891 -82.4091 180° South  Level Estimated
18:56 22.9891 -82.4091 180° South  Level Estimated
18:57 22.9891 -82.4091 180° South  Level Estimated
18:58 22.9891 -82.4091 180° South  Level Estimated
18:59 22.9891 -82.4091 180° South  Level Estimated
19:00 22.9891 -82.4091 180° South  Level Estimated